Time;durP1;ratioP1;P1;durP2;ratioP2;P2;SDS_P1;SDS_P2;PMS_P1;PMS_P2;Temp;Humidity;BMP_temperature;BMP_pressure;BME280_temperature;BME280_humidity;BME280_pressure;Samples;Min_cycle;Max_cycle;Signal;HPM_P1;HPM_P2
2022/10/15 00:02:18;;;;;;;25.65;19.45;;;;;;;;;;5029723;28;20043;-85
2022/10/15 00:04:44;;;;;;;29.88;21.35;;;;;;;;;;5022762;28;20479;-85
2022/10/15 00:07:10;;;;;;;32.97;22.42;;;;;;;;;;5028457;28;20042;-85
2022/10/15 00:09:36;;;;;;;31.83;23.35;;;;;;;;;;5023707;28;20053;-85
2022/10/15 00:12:02;;;;;;;33.55;25.17;;;;;;;;;;5021587;28;20041;-85
2022/10/15 00:14:35;;;;;;;35.75;26.73;;;;;;;;;;5019357;28;20069;-85
2022/10/15 00:17:01;;;;;;;37.90;27.75;;;;;;;;;;5022432;28;20081;-85
2022/10/15 00:19:27;;;;;;;40.60;29.58;;;;;;;;;;5017067;28;20211;-85
2022/10/15 00:21:53;;;;;;;38.15;28.85;;;;;;;;;;5019943;28;20045;-85
2022/10/15 00:24:19;;;;;;;43.20;29.83;;;;;;;;;;5020710;28;20037;-85
2022/10/15 00:26:45;;;;;;;43.95;30.77;;;;;;;;;;5016917;28;20045;-86
2022/10/15 00:29:11;;;;;;;41.97;29.35;;;;;;;;;;5022784;28;22079;-85
2022/10/15 00:31:37;;;;;;;39.17;30.13;;;;;;;;;;5021234;28;20041;-86
2022/10/15 00:34:03;;;;;;;47.72;31.05;;;;;;;;;;5020319;28;20493;-86
2022/10/15 00:36:34;;;;;;;43.25;30.38;;;;;;;;;;5030255;28;20042;-85
2022/10/15 00:39:00;;;;;;;45.92;32.90;;;;;;;;;;5021215;28;20049;-85
2022/10/15 00:41:31;;;;;;;45.15;31.25;;;;;;;;;;5023480;28;20038;-85
2022/10/15 00:44:01;;;;;;;43.83;30.02;;;;;;;;;;5028955;28;20056;-85
2022/10/15 00:46:31;;;;;;;43.80;32.33;;;;;;;;;;5018876;28;20041;-85
2022/10/15 00:49:15;;;;;;;46.92;31.50;;;;;;;;;;5028938;28;20123;-85
2022/10/15 00:51:43;;;;;;;40.25;30.25;;;;;;;;;;5025865;28;20045;-84
2022/10/15 00:54:11;;;;;;;41.97;30.73;;;;;;;;;;5016862;28;20055;-84
2022/10/15 00:56:38;;;;;;;43.45;30.80;;;;;;;;;;5023001;28;20539;-84
2022/10/15 00:59:05;;;;;;;38.55;29.00;;;;;;;;;;5025322;28;20049;-84
2022/10/15 01:01:31;;;;;;;41.50;30.15;;;;;;;;;;5032070;28;20183;-84
2022/10/15 01:03:57;;;;;;;38.33;28.83;;;;;;;;;;5021442;28;20168;-84
2022/10/15 01:06:24;;;;;;;42.92;29.83;;;;;;;;;;5017888;28;20095;-85
2022/10/15 01:08:50;;;;;;;37.75;28.73;;;;;;;;;;5015158;28;20388;-85
2022/10/15 01:11:35;;;;;;;38.92;28.98;;;;;;;;;;5023049;28;20539;-85
2022/10/15 01:14:01;;;;;;;39.05;28.23;;;;;;;;;;5018949;28;20045;-85
2022/10/15 01:16:30;;;;;;;29.55;23.25;;;;;;;;;;5017618;28;20030;-85
2022/10/15 01:19:02;;;;;;;28.13;19.95;;;;;;;;;;5021459;28;20049;-85
2022/10/15 01:21:29;;;;;;;23.45;16.92;;;;;;;;;;5019731;28;20294;-85
2022/10/15 01:24:04;;;;;;;19.75;14.93;;;;;;;;;;5020567;28;20083;-85
2022/10/15 01:26:45;;;;;;;20.05;12.43;;;;;;;;;;5019936;28;20049;-85
2022/10/15 01:29:14;;;;;;;13.70;11.50;;;;;;;;;;5017957;28;20124;-85
2022/10/15 01:31:52;;;;;;;14.15;9.30;;;;;;;;;;5019137;28;20056;-85
2022/10/15 01:34:31;;;;;;;11.18;8.23;;;;;;;;;;5018527;28;20041;-85
2022/10/15 01:37:05;;;;;;;9.85;7.80;;;;;;;;;;5021473;28;20069;-84
2022/10/15 01:39:32;;;;;;;10.88;7.85;;;;;;;;;;5015991;28;20041;-86
2022/10/15 01:42:07;;;;;;;9.63;8.35;;;;;;;;;;5025339;28;20052;-85
2022/10/15 01:44:35;;;;;;;13.40;10.18;;;;;;;;;;5018333;28;20064;-85
2022/10/15 01:47:07;;;;;;;11.07;8.80;;;;;;;;;;5018409;28;20045;-84
2022/10/15 01:49:36;;;;;;;10.90;9.77;;;;;;;;;;5019880;28;20052;-85
2022/10/15 01:52:06;;;;;;;12.23;9.80;;;;;;;;;;5019668;28;20047;-85
2022/10/15 01:54:32;;;;;;;13.13;9.57;;;;;;;;;;5019551;28;20136;-85
2022/10/15 01:56:59;;;;;;;11.27;9.05;;;;;;;;;;5021228;28;20053;-84
2022/10/15 01:59:27;;;;;;;12.23;8.85;;;;;;;;;;5020285;28;20572;-85
2022/10/15 02:01:54;;;;;;;12.43;8.85;;;;;;;;;;5018927;28;20052;-85
2022/10/15 02:04:21;;;;;;;10.95;9.20;;;;;;;;;;5022528;28;20065;-85
2022/10/15 02:06:49;;;;;;;11.98;10.10;;;;;;;;;;5019027;28;20415;-85
2022/10/15 02:09:21;;;;;;;12.45;10.70;;;;;;;;;;5022652;28;20477;-85
2022/10/15 02:12:00;;;;;;;17.40;12.70;;;;;;;;;;5023465;28;20037;-85
2022/10/15 02:14:33;;;;;;;21.90;19.58;;;;;;;;;;5022081;28;20076;-85
2022/10/15 02:17:06;;;;;;;27.85;22.88;;;;;;;;;;5026711;28;20120;-85
2022/10/15 02:19:37;;;;;;;29.63;24.88;;;;;;;;;;5026165;28;20064;-85
2022/10/15 02:22:30;;;;;;;32.03;27.27;;;;;;;;;;5034504;28;20045;-85
2022/10/15 02:25:08;;;;;;;34.90;30.10;;;;;;;;;;5021996;28;20390;-83
2022/10/15 02:27:35;;;;;;;38.75;31.77;;;;;;;;;;5022200;28;20041;-85
2022/10/15 02:30:06;;;;;;;38.58;31.60;;;;;;;;;;5029162;28;20041;-85
2022/10/15 02:32:32;;;;;;;43.03;32.25;;;;;;;;;;5021905;28;20056;-84
2022/10/15 02:35:00;;;;;;;46.40;33.13;;;;;;;;;;5030479;28;20041;-85
2022/10/15 02:37:27;;;;;;;47.53;34.13;;;;;;;;;;5029894;28;20041;-86
2022/10/15 02:39:53;;;;;;;48.78;33.75;;;;;;;;;;5029051;28;20048;-85
2022/10/15 02:42:20;;;;;;;49.35;32.58;;;;;;;;;;5033546;28;20057;-86
2022/10/15 02:44:46;;;;;;;44.08;33.33;;;;;;;;;;5028547;28;20096;-85
2022/10/15 02:47:12;;;;;;;44.33;32.22;;;;;;;;;;5026806;28;20073;-84
2022/10/15 02:49:38;;;;;;;48.30;32.10;;;;;;;;;;5031290;28;20691;-85
2022/10/15 02:52:04;;;;;;;42.45;32.08;;;;;;;;;;5031035;28;20104;-85
2022/10/15 02:54:30;;;;;;;47.95;32.05;;;;;;;;;;5030381;28;20041;-85
2022/10/15 02:56:56;;;;;;;44.47;30.88;;;;;;;;;;5022059;28;20188;-85
2022/10/15 02:59:22;;;;;;;44.03;30.80;;;;;;;;;;5028667;28;20592;-85
2022/10/15 03:01:48;;;;;;;46.85;32.75;;;;;;;;;;5026707;28;20060;-84
2022/10/15 03:04:14;;;;;;;44.05;30.67;;;;;;;;;;5029650;28;20494;-84
2022/10/15 03:06:40;;;;;;;43.92;30.83;;;;;;;;;;5028735;28;20048;-85
2022/10/15 03:09:12;;;;;;;45.88;31.00;;;;;;;;;;5029861;28;20554;-85
2022/10/15 03:11:39;;;;;;;45.00;31.23;;;;;;;;;;5026601;28;20041;-85
2022/10/15 03:14:05;;;;;;;46.33;31.33;;;;;;;;;;5028224;28;20045;-85
2022/10/15 03:16:31;;;;;;;44.80;31.75;;;;;;;;;;5026595;28;20049;-85
2022/10/15 03:18:57;;;;;;;49.47;31.88;;;;;;;;;;5027112;28;20037;-85
2022/10/15 03:21:23;;;;;;;48.97;33.25;;;;;;;;;;5028053;28;20390;-85
2022/10/15 03:23:49;;;;;;;48.78;32.45;;;;;;;;;;5017748;28;20493;-85
2022/10/15 03:26:15;;;;;;;48.63;32.22;;;;;;;;;;5030332;28;20110;-85
2022/10/15 03:28:41;;;;;;;47.88;32.45;;;;;;;;;;5028433;28;20037;-85
2022/10/15 03:31:07;;;;;;;49.97;33.05;;;;;;;;;;5022590;28;20382;-85
2022/10/15 03:33:33;;;;;;;53.15;34.35;;;;;;;;;;5029710;28;20612;-84
2022/10/15 03:35:59;;;;;;;48.53;32.55;;;;;;;;;;5027250;28;20123;-85
2022/10/15 03:38:25;;;;;;;50.60;35.25;;;;;;;;;;5030424;28;20092;-85
2022/10/15 03:40:51;;;;;;;47.75;33.55;;;;;;;;;;5026056;28;20106;-85
2022/10/15 03:43:17;;;;;;;46.72;33.80;;;;;;;;;;5027587;28;20491;-85
2022/10/15 03:45:43;;;;;;;54.35;33.67;;;;;;;;;;5021965;28;20042;-85
2022/10/15 03:48:09;;;;;;;48.78;33.60;;;;;;;;;;5024619;28;20087;-85
2022/10/15 03:50:35;;;;;;;51.40;34.22;;;;;;;;;;5029038;28;20046;-85
2022/10/15 03:53:05;;;;;;;49.58;34.10;;;;;;;;;;5018857;28;20049;-85
2022/10/15 03:55:31;;;;;;;50.50;34.78;;;;;;;;;;5030522;28;20060;-85
2022/10/15 03:57:57;;;;;;;52.42;35.33;;;;;;;;;;5026779;28;20140;-84
2022/10/15 04:00:23;;;;;;;54.83;35.53;;;;;;;;;;5031465;28;20179;-85
2022/10/15 04:02:49;;;;;;;52.80;35.25;;;;;;;;;;5022809;28;20069;-84
2022/10/15 04:05:15;;;;;;;54.83;35.38;;;;;;;;;;5029930;28;20131;-84
2022/10/15 04:07:41;;;;;;;54.58;36.33;;;;;;;;;;5030399;28;20152;-85
2022/10/15 04:10:08;;;;;;;54.15;35.40;;;;;;;;;;5031036;28;20051;-85
2022/10/15 04:12:34;;;;;;;53.35;34.40;;;;;;;;;;5014180;28;20129;-85
2022/10/15 04:15:00;;;;;;;56.92;35.65;;;;;;;;;;5031604;28;20048;-85
2022/10/15 04:17:26;;;;;;;50.63;34.00;;;;;;;;;;5029443;28;20081;-85
2022/10/15 04:19:58;;;;;;;55.42;35.65;;;;;;;;;;5028011;28;20404;-85
2022/10/15 04:22:24;;;;;;;56.95;34.33;;;;;;;;;;5026085;28;20461;-84
2022/10/15 04:24:50;;;;;;;54.83;36.42;;;;;;;;;;5024759;28;20080;-85
2022/10/15 04:27:16;;;;;;;54.17;36.15;;;;;;;;;;5028377;28;20049;-84
2022/10/15 04:29:42;;;;;;;53.53;35.38;;;;;;;;;;5026387;28;20111;-85
2022/10/15 04:32:10;;;;;;;61.55;35.60;;;;;;;;;;5019464;28;20115;-85
2022/10/15 04:34:36;;;;;;;56.38;37.17;;;;;;;;;;5029760;28;20076;-84
2022/10/15 04:37:02;;;;;;;54.92;36.00;;;;;;;;;;5029649;28;20057;-84
2022/10/15 04:39:28;;;;;;;52.30;37.22;;;;;;;;;;5028454;28;20064;-85
2022/10/15 04:41:56;;;;;;;57.53;37.08;;;;;;;;;;5029553;28;20521;-84
2022/10/15 04:44:22;;;;;;;55.42;38.05;;;;;;;;;;5027172;28;20076;-84
2022/10/15 04:46:48;;;;;;;56.72;37.30;;;;;;;;;;5023961;28;20128;-84
2022/10/15 04:49:14;;;;;;;57.30;37.88;;;;;;;;;;5027861;28;20045;-84
2022/10/15 04:51:40;;;;;;;52.17;36.00;;;;;;;;;;5027006;28;20533;-84
2022/10/15 04:54:06;;;;;;;59.22;37.63;;;;;;;;;;5027105;28;20046;-84
2022/10/15 04:56:32;;;;;;;54.60;38.22;;;;;;;;;;5023358;28;20050;-84
2022/10/15 04:58:58;;;;;;;52.40;36.67;;;;;;;;;;5025866;28;20491;-84
2022/10/15 05:01:24;;;;;;;56.38;38.03;;;;;;;;;;5016811;28;20045;-85
2022/10/15 05:03:50;;;;;;;59.00;38.90;;;;;;;;;;5021712;28;20069;-85
2022/10/15 05:06:20;;;;;;;59.08;37.92;;;;;;;;;;5020184;28;20073;-84
2022/10/15 05:08:46;;;;;;;54.38;37.35;;;;;;;;;;5019926;28;20067;-85
2022/10/15 05:11:12;;;;;;;52.28;36.33;;;;;;;;;;5021636;28;20080;-84
2022/10/15 05:13:38;;;;;;;56.20;38.50;;;;;;;;;;5019333;28;21424;-84
2022/10/15 05:16:24;;;;;;;53.88;37.10;;;;;;;;;;5020705;28;20042;-84
2022/10/15 05:18:51;;;;;;;60.35;39.55;;;;;;;;;;5024384;28;20047;-84
2022/10/15 05:21:18;;;;;;;54.75;37.63;;;;;;;;;;5020685;28;20047;-84
2022/10/15 05:23:44;;;;;;;55.58;38.25;;;;;;;;;;5020161;28;20124;-84
2022/10/15 05:26:11;;;;;;;56.63;38.58;;;;;;;;;;5019284;28;20492;-83
2022/10/15 05:28:37;;;;;;;58.17;39.58;;;;;;;;;;5018800;28;20559;-84
2022/10/15 05:31:05;;;;;;;55.33;37.40;;;;;;;;;;5019090;28;20060;-84
2022/10/15 05:33:31;;;;;;;56.13;37.70;;;;;;;;;;5019916;28;20100;-84
2022/10/15 05:35:57;;;;;;;55.35;37.30;;;;;;;;;;5020217;28;20552;-83
2022/10/15 05:38:23;;;;;;;55.10;36.47;;;;;;;;;;5020791;28;20135;-84
2022/10/15 05:40:49;;;;;;;50.15;34.28;;;;;;;;;;5018363;28;20068;-83
2022/10/15 05:43:15;;;;;;;52.15;33.38;;;;;;;;;;5023920;28;20437;-83
2022/10/15 05:45:41;;;;;;;51.80;33.15;;;;;;;;;;5023255;28;20053;-83
2022/10/15 05:48:07;;;;;;;52.78;33.55;;;;;;;;;;5024021;28;20041;-83
2022/10/15 05:50:33;;;;;;;52.40;33.95;;;;;;;;;;5024380;28;20322;-83
2022/10/15 05:52:59;;;;;;;54.15;34.58;;;;;;;;;;5026281;28;20049;-84
2022/10/15 05:55:25;;;;;;;55.90;35.95;;;;;;;;;;5022951;28;20038;-83
2022/10/15 05:57:51;;;;;;;59.83;35.63;;;;;;;;;;5022658;28;20475;-83
2022/10/15 06:00:17;;;;;;;64.45;40.05;;;;;;;;;;5023554;28;20041;-83
2022/10/15 06:02:43;;;;;;;67.70;42.83;;;;;;;;;;5029355;28;20183;-83
2022/10/15 06:05:09;;;;;;;63.78;43.28;;;;;;;;;;5023467;28;20041;-84
2022/10/15 06:07:35;;;;;;;67.43;41.42;;;;;;;;;;5026739;28;20040;-83
2022/10/15 06:10:02;;;;;;;64.25;41.08;;;;;;;;;;5033351;28;20045;-83
2022/10/15 06:12:28;;;;;;;60.47;39.78;;;;;;;;;;5026124;28;20416;-84
2022/10/15 06:14:54;;;;;;;67.88;41.53;;;;;;;;;;5029473;28;20505;-84
2022/10/15 06:17:23;;;;;;;68.57;42.45;;;;;;;;;;5030620;28;20041;-85
2022/10/15 06:19:49;;;;;;;71.75;43.88;;;;;;;;;;5029348;28;20124;-83
2022/10/15 06:22:15;;;;;;;61.72;42.20;;;;;;;;;;5027457;28;20125;-83
2022/10/15 06:24:41;;;;;;;68.00;41.25;;;;;;;;;;5031091;28;20042;-84
2022/10/15 06:27:08;;;;;;;61.50;39.70;;;;;;;;;;5032304;28;20489;-85
2022/10/15 06:29:34;;;;;;;62.75;38.00;;;;;;;;;;5022177;28;20053;-84
2022/10/15 06:32:00;;;;;;;66.05;41.28;;;;;;;;;;5030093;28;20489;-85
2022/10/15 06:34:27;;;;;;;61.35;40.40;;;;;;;;;;5030874;28;20105;-84
2022/10/15 06:36:53;;;;;;;68.50;46.30;;;;;;;;;;5029753;28;20041;-83
2022/10/15 06:39:19;;;;;;;66.97;45.00;;;;;;;;;;5027405;28;20072;-84
2022/10/15 06:41:45;;;;;;;66.47;46.33;;;;;;;;;;5030907;28;20045;-83
2022/10/15 06:44:11;;;;;;;73.05;46.25;;;;;;;;;;5031001;28;20072;-85
2022/10/15 06:46:38;;;;;;;73.63;46.85;;;;;;;;;;5019938;28;20528;-84
2022/10/15 06:49:04;;;;;;;70.05;45.22;;;;;;;;;;5031595;28;20045;-84
2022/10/15 06:51:30;;;;;;;72.47;45.92;;;;;;;;;;5027617;28;20131;-82
2022/10/15 06:53:56;;;;;;;66.40;45.72;;;;;;;;;;5026662;28;20041;-83
2022/10/15 06:56:22;;;;;;;64.72;43.58;;;;;;;;;;5033173;28;20052;-83
2022/10/15 06:58:48;;;;;;;68.18;45.72;;;;;;;;;;5031442;28;20104;-82
2022/10/15 07:01:14;;;;;;;68.38;44.63;;;;;;;;;;5031760;28;20045;-83
2022/10/15 07:03:40;;;;;;;73.13;46.90;;;;;;;;;;5023934;28;20037;-83
2022/10/15 07:06:07;;;;;;;68.25;45.92;;;;;;;;;;5030474;28;20489;-83
2022/10/15 07:08:34;;;;;;;67.55;46.35;;;;;;;;;;5028182;28;20489;-84
2022/10/15 07:11:04;;;;;;;73.57;47.60;;;;;;;;;;5020073;28;20473;-84
2022/10/15 07:13:30;;;;;;;72.70;47.83;;;;;;;;;;5031993;28;20088;-83
2022/10/15 07:15:56;;;;;;;66.22;47.50;;;;;;;;;;5024145;28;20049;-83
2022/10/15 07:18:22;;;;;;;76.78;47.05;;;;;;;;;;5028192;28;20048;-84
2022/10/15 07:20:48;;;;;;;70.70;48.58;;;;;;;;;;5031108;28;20160;-83
2022/10/15 07:23:14;;;;;;;69.15;46.92;;;;;;;;;;5025361;28;20081;-83
2022/10/15 07:25:40;;;;;;;69.38;47.03;;;;;;;;;;5023591;28;20041;-83
2022/10/15 07:28:06;;;;;;;67.53;43.33;;;;;;;;;;5027097;28;20091;-83
2022/10/15 07:30:32;;;;;;;69.05;45.53;;;;;;;;;;5023659;28;20057;-83
2022/10/15 07:32:59;;;;;;;72.20;45.08;;;;;;;;;;5030502;28;20041;-85
2022/10/15 07:35:26;;;;;;;74.65;43.53;;;;;;;;;;5024853;28;20076;-83
2022/10/15 07:37:52;;;;;;;69.28;41.53;;;;;;;;;;5031938;28;20045;-84
2022/10/15 07:40:18;;;;;;;69.45;42.22;;;;;;;;;;5029798;28;20052;-83
2022/10/15 07:42:44;;;;;;;68.00;41.95;;;;;;;;;;5024792;28;20041;-83
2022/10/15 07:45:11;;;;;;;67.70;38.03;;;;;;;;;;5032061;28;20049;-84
2022/10/15 07:47:40;;;;;;;70.38;38.40;;;;;;;;;;5030561;28;20042;-84
2022/10/15 07:50:06;;;;;;;66.85;38.97;;;;;;;;;;5026024;28;20053;-83
2022/10/15 07:52:32;;;;;;;66.70;38.13;;;;;;;;;;5027023;28;20053;-84
2022/10/15 07:54:58;;;;;;;69.72;37.15;;;;;;;;;;5031152;28;20045;-84
2022/10/15 07:57:24;;;;;;;68.72;38.17;;;;;;;;;;5023053;28;20115;-83
2022/10/15 07:59:50;;;;;;;71.28;36.47;;;;;;;;;;5019422;28;20052;-83
2022/10/15 08:02:17;;;;;;;70.57;36.88;;;;;;;;;;5033158;28;20042;-83
2022/10/15 08:04:43;;;;;;;68.57;39.40;;;;;;;;;;5027912;28;20068;-84
2022/10/15 08:07:09;;;;;;;69.63;36.88;;;;;;;;;;5030443;28;20037;-83
2022/10/15 08:09:35;;;;;;;59.47;34.15;;;;;;;;;;5022910;28;20050;-84
2022/10/15 08:12:01;;;;;;;62.50;34.42;;;;;;;;;;5018298;28;20055;-83
2022/10/15 08:14:27;;;;;;;61.03;35.90;;;;;;;;;;5031096;28;20049;-84
2022/10/15 08:16:53;;;;;;;65.53;38.20;;;;;;;;;;5027481;28;20046;-84
2022/10/15 08:19:19;;;;;;;64.53;38.78;;;;;;;;;;5030254;28;20042;-84
2022/10/15 08:21:45;;;;;;;67.03;38.95;;;;;;;;;;5018250;28;20496;-83
2022/10/15 08:24:11;;;;;;;65.78;39.58;;;;;;;;;;5032239;28;20041;-84
2022/10/15 08:26:38;;;;;;;63.95;38.90;;;;;;;;;;5026238;28;20042;-82
2022/10/15 08:29:04;;;;;;;63.03;40.10;;;;;;;;;;5032290;28;20045;-82
2022/10/15 08:31:30;;;;;;;62.70;42.35;;;;;;;;;;5022262;28;20135;-83
2022/10/15 08:33:59;;;;;;;61.95;41.17;;;;;;;;;;5030680;28;20077;-83
2022/10/15 08:36:25;;;;;;;62.47;41.50;;;;;;;;;;5028959;28;20524;-83
2022/10/15 08:38:51;;;;;;;59.80;38.22;;;;;;;;;;5024446;28;20050;-83
2022/10/15 08:41:37;;;;;;;58.53;36.95;;;;;;;;;;5011152;28;20042;-84
2022/10/15 08:44:03;;;;;;;54.13;37.08;;;;;;;;;;5014654;28;20046;-83
2022/10/15 08:46:39;;;;;;;55.15;38.88;;;;;;;;;;5020702;28;20053;-84
2022/10/15 08:49:05;;;;;;;47.95;36.53;;;;;;;;;;5025045;28;20536;-84
2022/10/15 08:51:39;;;;;;;53.10;36.53;;;;;;;;;;5028682;28;20045;-81
2022/10/15 08:54:06;;;;;;;47.38;35.75;;;;;;;;;;5026280;28;20133;-81
2022/10/15 08:56:32;;;;;;;47.25;35.97;;;;;;;;;;5027275;28;20049;-81
2022/10/15 08:59:17;;;;;;;49.20;37.75;;;;;;;;;;5025376;28;20462;-81
2022/10/15 09:01:43;;;;;;;58.90;44.22;;;;;;;;;;5016806;28;20045;-82
2022/10/15 09:04:25;;;;;;;48.67;36.92;;;;;;;;;;5029978;28;20492;-81
2022/10/15 09:06:55;;;;;;;46.80;35.33;;;;;;;;;;5025966;28;20041;-82
2022/10/15 09:09:31;;;;;;;47.58;36.45;;;;;;;;;;5030183;28;20103;-81
2022/10/15 09:12:03;;;;;;;54.47;36.90;;;;;;;;;;5028434;28;20045;-81
2022/10/15 09:14:32;;;;;;;45.88;35.17;;;;;;;;;;5011424;28;20054;-81
2022/10/15 09:17:01;;;;;;;44.90;32.55;;;;;;;;;;5023334;28;20049;-81
2022/10/15 09:19:30;;;;;;;46.42;32.22;;;;;;;;;;5030746;28;20042;-81
2022/10/15 09:21:58;;;;;;;38.70;26.77;;;;;;;;;;5028496;28;20041;-81
2022/10/15 09:24:25;;;;;;;40.05;26.95;;;;;;;;;;5026006;28;20206;-82
2022/10/15 09:26:59;;;;;;;39.83;26.48;;;;;;;;;;5024753;28;20048;-81
2022/10/15 09:29:31;;;;;;;40.70;27.30;;;;;;;;;;5029164;28;20053;-82
2022/10/15 09:32:16;;;;;;;34.83;25.40;;;;;;;;;;5022438;28;20049;-81
2022/10/15 09:34:52;;;;;;;41.67;30.33;;;;;;;;;;5028271;28;20045;-81
2022/10/15 09:37:34;;;;;;;40.80;28.65;;;;;;;;;;5031415;28;20485;-82
2022/10/15 09:40:20;;;;;;;39.88;29.38;;;;;;;;;;5019038;28;20050;-81
2022/10/15 09:42:49;;;;;;;39.08;27.33;;;;;;;;;;5025110;28;20044;-83
2022/10/15 09:45:16;;;;;;;40.70;29.17;;;;;;;;;;5029025;28;20056;-83
2022/10/15 09:47:42;;;;;;;40.03;28.83;;;;;;;;;;5021537;28;20041;-82
2022/10/15 09:50:10;;;;;;;39.83;26.77;;;;;;;;;;5010172;28;20137;-83
2022/10/15 09:52:47;;;;;;;43.67;29.55;;;;;;;;;;5023672;28;20041;-82
2022/10/15 09:55:16;;;;;;;36.75;26.73;;;;;;;;;;5023484;28;20049;-82
2022/10/15 09:57:45;;;;;;;40.25;27.95;;;;;;;;;;5024691;28;20464;-82
2022/10/15 10:00:13;;;;;;;38.88;25.40;;;;;;;;;;5028215;28;20481;-82
2022/10/15 10:02:39;;;;;;;39.63;24.60;;;;;;;;;;5027945;28;20046;-82
2022/10/15 10:05:23;;;;;;;39.95;24.92;;;;;;;;;;5029259;28;20049;-82
2022/10/15 10:07:50;;;;;;;37.25;23.67;;;;;;;;;;5025294;28;20037;-82
2022/10/15 10:10:26;;;;;;;36.58;24.42;;;;;;;;;;5029567;28;20057;-83
2022/10/15 10:12:53;;;;;;;38.58;24.00;;;;;;;;;;5030272;28;20057;-83
2022/10/15 10:15:33;;;;;;;39.72;24.98;;;;;;;;;;5020559;28;20042;-81
2022/10/15 10:17:59;;;;;;;34.50;23.17;;;;;;;;;;5025480;28;20488;-83
2022/10/15 10:20:29;;;;;;;40.42;24.80;;;;;;;;;;5011087;28;20129;-83
2022/10/15 10:23:04;;;;;;;39.00;24.00;;;;;;;;;;5028837;28;20056;-84
2022/10/15 10:25:33;;;;;;;38.83;25.15;;;;;;;;;;5022964;28;20046;-82
2022/10/15 10:28:06;;;;;;;40.13;24.55;;;;;;;;;;5031504;28;20045;-84
2022/10/15 10:30:33;;;;;;;37.80;25.25;;;;;;;;;;5033461;28;20049;-83
2022/10/15 10:33:00;;;;;;;37.42;24.85;;;;;;;;;;5032816;28;20041;-83
2022/10/15 10:35:35;;;;;;;34.83;23.75;;;;;;;;;;5016869;28;20045;-82
2022/10/15 10:38:01;;;;;;;38.58;24.60;;;;;;;;;;5025667;28;20054;-83
2022/10/15 10:40:28;;;;;;;35.78;22.85;;;;;;;;;;5019323;28;20038;-83
2022/10/15 10:43:24;;;;;;;34.13;23.55;;;;;;;;;;5029789;28;20513;-82
2022/10/15 10:46:00;;;;;;;33.10;21.42;;;;;;;;;;5005276;28;20053;-83
2022/10/15 10:48:40;;;;;;;28.02;20.17;;;;;;;;;;5022397;28;20041;-83
2022/10/15 10:51:09;;;;;;;29.77;20.25;;;;;;;;;;5024223;28;20042;-83
2022/10/15 10:53:54;;;;;;;26.70;19.10;;;;;;;;;;5032751;28;20045;-82
2022/10/15 10:56:22;;;;;;;26.75;19.45;;;;;;;;;;5020328;28;20034;-84
2022/10/15 10:58:51;;;;;;;26.98;19.05;;;;;;;;;;5016043;28;20763;-83
2022/10/15 11:01:17;;;;;;;24.00;18.52;;;;;;;;;;5031839;28;20132;-82
2022/10/15 11:03:44;;;;;;;20.70;16.63;;;;;;;;;;5015541;28;20061;-83
2022/10/15 11:06:35;;;;;;;22.65;17.95;;;;;;;;;;5019124;28;20054;-82
2022/10/15 11:09:19;;;;;;;20.98;17.45;;;;;;;;;;5013347;28;20133;-82
2022/10/15 11:12:18;;;;;;;20.50;16.45;;;;;;;;;;5013244;28;20050;-83
2022/10/15 11:14:52;;;;;;;20.77;16.35;;;;;;;;;;4973225;28;20053;-82
2022/10/15 11:17:37;;;;;;;24.48;16.05;;;;;;;;;;5029415;28;20486;-83
2022/10/15 11:20:09;;;;;;;17.70;15.02;;;;;;;;;;5032148;28;20057;-84
2022/10/15 11:22:41;;;;;;;17.98;14.70;;;;;;;;;;5029891;28;20512;-82
2022/10/15 11:25:16;;;;;;;18.17;15.57;;;;;;;;;;5023035;28;20144;-82
2022/10/15 11:27:45;;;;;;;17.40;14.18;;;;;;;;;;5025257;28;20065;-83
2022/10/15 11:30:31;;;;;;;16.98;14.50;;;;;;;;;;5026512;28;20370;-83
2022/10/15 11:33:03;;;;;;;16.50;14.77;;;;;;;;;;5017125;28;20136;-84
2022/10/15 11:35:29;;;;;;;16.27;14.30;;;;;;;;;;5031382;28;20172;-84
2022/10/15 11:38:05;;;;;;;17.40;14.80;;;;;;;;;;5031274;28;20124;-84
2022/10/15 11:40:51;;;;;;;15.75;14.02;;;;;;;;;;5027274;28;20519;-83
2022/10/15 11:43:31;;;;;;;15.82;13.27;;;;;;;;;;5031000;28;20053;-83
2022/10/15 11:46:06;;;;;;;15.48;13.52;;;;;;;;;;5031654;28;20052;-83
2022/10/15 11:48:54;;;;;;;16.13;13.05;;;;;;;;;;5021588;28;20091;-85
2022/10/15 11:51:27;;;;;;;15.05;13.23;;;;;;;;;;5030537;28;20115;-85
2022/10/15 11:53:56;;;;;;;14.43;12.93;;;;;;;;;;5019576;28;20099;-86
2022/10/15 11:56:22;;;;;;;14.00;12.55;;;;;;;;;;5028503;28;20041;-83
2022/10/15 11:58:51;;;;;;;13.95;11.82;;;;;;;;;;5013773;28;20092;-84
2022/10/15 12:01:24;;;;;;;12.57;11.07;;;;;;;;;;5028575;28;20084;-85
2022/10/15 12:03:53;;;;;;;12.88;11.45;;;;;;;;;;5020412;28;20057;-85
2022/10/15 12:06:21;;;;;;;13.43;11.32;;;;;;;;;;5028670;28;20041;-83
2022/10/15 12:08:48;;;;;;;12.25;10.95;;;;;;;;;;5024099;28;20106;-84
2022/10/15 12:11:37;;;;;;;12.48;11.18;;;;;;;;;;5026045;28;20386;-85
2022/10/15 12:14:24;;;;;;;12.52;10.57;;;;;;;;;;5017228;28;20061;-84
2022/10/15 12:16:55;;;;;;;12.10;10.80;;;;;;;;;;5029854;28;20490;-85
2022/10/15 12:19:24;;;;;;;11.40;10.07;;;;;;;;;;5027201;28;20038;-87
2022/10/15 12:21:56;;;;;;;13.35;11.00;;;;;;;;;;5026197;28;20037;-83
2022/10/15 12:24:43;;;;;;;11.93;10.25;;;;;;;;;;5029929;28;20045;-83
2022/10/15 12:27:15;;;;;;;11.85;10.57;;;;;;;;;;5028423;28;20484;-85
2022/10/15 12:29:41;;;;;;;11.82;10.32;;;;;;;;;;5027772;28;20388;-80
2022/10/15 12:32:21;;;;;;;10.93;9.82;;;;;;;;;;5018556;28;20053;-86
2022/10/15 12:34:53;;;;;;;10.88;9.60;;;;;;;;;;5029623;28;20072;-89
2022/10/15 12:37:21;;;;;;;11.27;10.13;;;;;;;;;;5028081;28;20045;-88
2022/10/15 12:39:56;;;;;;;10.27;8.95;;;;;;;;;;5025654;28;20147;-85
2022/10/15 12:42:22;;;;;;;10.18;9.18;;;;;;;;;;5030618;28;20054;-85
2022/10/15 12:44:48;;;;;;;10.75;9.65;;;;;;;;;;5016056;28;20044;-85
2022/10/15 12:47:14;;;;;;;10.93;9.75;;;;;;;;;;5028502;28;20151;-86
2022/10/15 12:49:43;;;;;;;10.15;9.13;;;;;;;;;;5018783;28;20038;-85
2022/10/15 12:52:28;;;;;;;9.57;8.57;;;;;;;;;;5022700;28;20460;-87
2022/10/15 12:55:14;;;;;;;11.90;9.48;;;;;;;;;;5014268;28;20045;-85
2022/10/15 12:57:40;;;;;;;12.70;10.07;;;;;;;;;;5029172;28;20057;-86
2022/10/15 13:00:42;;;;;;;11.70;10.50;;;;;;;;;;5031455;28;20053;-87
2022/10/15 13:03:10;;;;;;;10.23;8.93;;;;;;;;;;5002892;28;20133;-85
2022/10/15 13:05:36;;;;;;;10.35;9.25;;;;;;;;;;5019180;28;20507;-87
2022/10/15 13:08:04;;;;;;;10.52;9.18;;;;;;;;;;5014534;28;20136;-87
2022/10/15 13:10:40;;;;;;;10.52;9.43;;;;;;;;;;5030201;28;20136;-86
2022/10/15 13:13:11;;;;;;;10.43;9.15;;;;;;;;;;5031317;28;20044;-87
2022/10/15 13:15:38;;;;;;;10.40;9.25;;;;;;;;;;5030030;28;20041;-85
2022/10/15 13:18:07;;;;;;;10.38;9.32;;;;;;;;;;5018078;28;20060;-86
2022/10/15 13:20:35;;;;;;;10.90;9.73;;;;;;;;;;5010131;28;20049;-89
2022/10/15 13:23:27;;;;;;;11.00;9.35;;;;;;;;;;5028186;28;20072;-84
2022/10/15 13:26:12;;;;;;;11.00;9.52;;;;;;;;;;5018667;28;20053;-85
2022/10/15 13:28:40;;;;;;;10.95;9.35;;;;;;;;;;5031451;28;20095;-85
2022/10/15 13:31:11;;;;;;;10.20;9.20;;;;;;;;;;5027503;28;20042;-85
2022/10/15 13:33:41;;;;;;;9.95;8.77;;;;;;;;;;5022614;28;20052;-85
2022/10/15 13:36:07;;;;;;;10.77;9.52;;;;;;;;;;5017420;28;20129;-82
2022/10/15 13:38:35;;;;;;;10.32;9.15;;;;;;;;;;5027681;28;20230;-78
2022/10/15 13:41:01;;;;;;;10.23;9.23;;;;;;;;;;5014591;28;20136;-80
2022/10/15 13:43:27;;;;;;;8.65;7.70;;;;;;;;;;5027174;28;20191;-81
2022/10/15 13:45:57;;;;;;;8.82;7.93;;;;;;;;;;5024953;28;20045;-81
2022/10/15 13:48:24;;;;;;;7.47;6.15;;;;;;;;;;5026438;28;20137;-81
2022/10/15 13:50:55;;;;;;;6.78;5.72;;;;;;;;;;5029466;28;20072;-80
2022/10/15 13:53:33;;;;;;;4.72;4.22;;;;;;;;;;5020706;28;20041;-80
2022/10/15 13:56:00;;;;;;;4.20;3.75;;;;;;;;;;5027447;28;20064;-80
2022/10/15 13:58:36;;;;;;;6.80;5.60;;;;;;;;;;5027364;28;20068;-81
2022/10/15 14:01:07;;;;;;;9.10;8.20;;;;;;;;;;5020520;28;20156;-81
2022/10/15 14:03:35;;;;;;;11.13;9.93;;;;;;;;;;5028713;28;20041;-81
2022/10/15 14:06:17;;;;;;;10.60;9.50;;;;;;;;;;5032043;28;20045;-80
2022/10/15 14:08:44;;;;;;;9.60;8.50;;;;;;;;;;5029162;28;20045;-80
2022/10/15 14:11:11;;;;;;;9.23;8.32;;;;;;;;;;5024973;28;20049;-80
2022/10/15 14:13:48;;;;;;;10.25;9.25;;;;;;;;;;5030127;28;20139;-81
2022/10/15 14:16:14;;;;;;;8.65;7.72;;;;;;;;;;5032752;28;20050;-81
2022/10/15 14:18:45;;;;;;;8.15;7.35;;;;;;;;;;5032134;28;20056;-82
2022/10/15 14:21:12;;;;;;;7.90;7.10;;;;;;;;;;5031921;28;20484;-81
2022/10/15 14:23:39;;;;;;;7.50;6.78;;;;;;;;;;5028830;28;20115;-81
2022/10/15 14:26:06;;;;;;;7.32;6.68;;;;;;;;;;5027725;28;20412;-80
2022/10/15 14:28:33;;;;;;;6.50;5.90;;;;;;;;;;5027932;28;20396;-81
2022/10/15 14:31:00;;;;;;;6.25;5.63;;;;;;;;;;5028912;28;20042;-81
2022/10/15 14:33:29;;;;;;;12.93;10.15;;;;;;;;;;5033598;28;20088;-86
2022/10/15 14:36:10;;;;;;;5.57;5.07;;;;;;;;;;5020960;28;20120;-88